sensor_id;sensor_type;location;lat;lon;timestamp;temperature;humidity
33149;DHT22;19506;51.040;3.856;2023-03-20T16:11:42;17.60;99.90
33149;DHT22;19506;51.040;3.856;2023-03-20T16:14:21;17.50;99.90
33149;DHT22;19506;51.040;3.856;2023-03-20T16:16:50;17.60;99.90
33149;DHT22;19506;51.040;3.856;2023-03-20T16:19:18;17.70;99.90
33149;DHT22;19506;51.040;3.856;2023-03-20T16:21:48;17.70;99.90
33149;DHT22;19506;51.040;3.856;2023-03-20T16:24:27;17.70;99.90
33149;DHT22;19506;51.040;3.856;2023-03-20T16:26:54;17.70;99.90
33149;DHT22;19506;51.040;3.856;2023-03-20T16:29:23;17.70;99.90
33149;DHT22;19506;51.040;3.856;2023-03-20T16:32:00;17.70;99.90
33149;DHT22;19506;51.040;3.856;2023-03-20T16:34:34;17.70;99.90
33149;DHT22;19506;51.040;3.856;2023-03-20T16:37:06;17.70;99.90
33149;DHT22;19506;51.040;3.856;2023-03-20T16:39:32;17.80;99.90
33149;DHT22;19506;51.040;3.856;2023-03-20T16:42:09;17.80;99.90
33149;DHT22;19506;51.040;3.856;2023-03-20T16:44:36;17.80;99.90
33149;DHT22;19506;51.040;3.856;2023-03-20T16:47:15;17.80;99.90
33149;DHT22;19506;51.040;3.856;2023-03-20T16:52:39;17.80;99.90
33149;DHT22;19506;51.040;3.856;2023-03-20T16:55:13;17.90;99.90
33149;DHT22;19506;51.040;3.856;2023-03-20T16:57:40;17.90;99.90
33149;DHT22;19506;51.040;3.856;2023-03-20T17:00:21;17.90;99.90
33149;DHT22;19506;51.040;3.856;2023-03-20T17:02:58;17.90;99.90
33149;DHT22;19506;51.040;3.856;2023-03-20T17:05:47;17.90;99.90
33149;DHT22;19506;51.040;3.856;2023-03-20T17:08:16;17.90;99.90
33149;DHT22;19506;51.040;3.856;2023-03-20T17:10:48;17.90;99.90
33149;DHT22;19506;51.040;3.856;2023-03-20T17:13:14;17.90;99.90
33149;DHT22;19506;51.040;3.856;2023-03-20T17:15:40;17.90;99.90
33149;DHT22;19506;51.040;3.856;2023-03-20T17:18:12;18.00;99.90
33149;DHT22;19506;51.040;3.856;2023-03-20T17:20:39;18.00;99.90
33149;DHT22;19506;51.040;3.856;2023-03-20T17:23:13;17.90;99.90
33149;DHT22;19506;51.040;3.856;2023-03-20T17:25:41;18.00;99.90
33149;DHT22;19506;51.040;3.856;2023-03-20T17:28:17;18.00;99.90
33149;DHT22;19506;51.040;3.856;2023-03-20T17:30:45;18.00;99.90
33149;DHT22;19506;51.040;3.856;2023-03-20T17:33:14;18.10;99.90
33149;DHT22;19506;51.040;3.856;2023-03-20T17:35:40;18.00;99.90
33149;DHT22;19506;51.040;3.856;2023-03-20T17:38:16;18.10;99.90
33149;DHT22;19506;51.040;3.856;2023-03-20T17:40:42;18.00;99.90
33149;DHT22;19506;51.040;3.856;2023-03-20T17:43:12;18.20;99.90
33149;DHT22;19506;51.040;3.856;2023-03-20T17:45:38;18.10;99.90
33149;DHT22;19506;51.040;3.856;2023-03-20T17:48:04;18.30;99.90
33149;DHT22;19506;51.040;3.856;2023-03-20T17:50:30;18.20;99.90
33149;DHT22;19506;51.040;3.856;2023-03-20T17:52:57;18.20;99.90
33149;DHT22;19506;51.040;3.856;2023-03-20T17:55:23;18.40;99.90
33149;DHT22;19506;51.040;3.856;2023-03-20T17:57:48;18.60;99.90
33149;DHT22;19506;51.040;3.856;2023-03-20T18:00:17;18.60;99.90
33149;DHT22;19506;51.040;3.856;2023-03-20T18:02:43;18.60;99.90
33149;DHT22;19506;51.040;3.856;2023-03-20T18:05:09;18.70;99.90
33149;DHT22;19506;51.040;3.856;2023-03-20T18:07:36;18.70;99.90
33149;DHT22;19506;51.040;3.856;2023-03-20T18:10:02;18.50;99.90
33149;DHT22;19506;51.040;3.856;2023-03-20T18:12:28;18.40;99.90
33149;DHT22;19506;51.040;3.856;2023-03-20T18:14:54;18.40;99.90
33149;DHT22;19506;51.040;3.856;2023-03-20T18:17:19;18.40;99.90
33149;DHT22;19506;51.040;3.856;2023-03-20T18:19:45;18.60;99.90
33149;DHT22;19506;51.040;3.856;2023-03-20T18:22:11;18.70;99.90
33149;DHT22;19506;51.040;3.856;2023-03-20T18:24:37;18.80;99.90
33149;DHT22;19506;51.040;3.856;2023-03-20T18:27:05;18.90;99.90
33149;DHT22;19506;51.040;3.856;2023-03-20T18:29:32;19.00;99.90
33149;DHT22;19506;51.040;3.856;2023-03-20T18:31:57;19.10;99.90
33149;DHT22;19506;51.040;3.856;2023-03-20T18:34:23;19.10;99.90
33149;DHT22;19506;51.040;3.856;2023-03-20T18:36:49;19.20;99.90
33149;DHT22;19506;51.040;3.856;2023-03-20T18:39:21;19.20;99.90
33149;DHT22;19506;51.040;3.856;2023-03-20T18:41:46;19.20;99.90
33149;DHT22;19506;51.040;3.856;2023-03-20T18:44:13;19.20;99.90
33149;DHT22;19506;51.040;3.856;2023-03-20T18:46:38;19.20;99.90
33149;DHT22;19506;51.040;3.856;2023-03-20T18:49:04;19.20;99.90
33149;DHT22;19506;51.040;3.856;2023-03-20T18:51:31;19.30;99.90
33149;DHT22;19506;51.040;3.856;2023-03-20T18:53:57;19.30;99.90
33149;DHT22;19506;51.040;3.856;2023-03-20T18:56:26;19.30;99.90
33149;DHT22;19506;51.040;3.856;2023-03-20T18:58:52;19.30;99.90
33149;DHT22;19506;51.040;3.856;2023-03-20T19:01:19;19.30;99.90
33149;DHT22;19506;51.040;3.856;2023-03-20T19:03:45;19.30;99.90
33149;DHT22;19506;51.040;3.856;2023-03-20T19:06:17;19.30;99.90
33149;DHT22;19506;51.040;3.856;2023-03-20T19:08:44;19.20;99.90
33149;DHT22;19506;51.040;3.856;2023-03-20T19:11:10;19.30;99.90
33149;DHT22;19506;51.040;3.856;2023-03-20T19:13:44;19.20;99.90
33149;DHT22;19506;51.040;3.856;2023-03-20T19:16:33;19.20;99.90
33149;DHT22;19506;51.040;3.856;2023-03-20T19:19:01;19.20;99.90
33149;DHT22;19506;51.040;3.856;2023-03-20T19:21:32;19.20;99.90
33149;DHT22;19506;51.040;3.856;2023-03-20T19:24:00;19.20;99.90
33149;DHT22;19506;51.040;3.856;2023-03-20T19:26:27;19.20;99.90
33149;DHT22;19506;51.040;3.856;2023-03-20T19:28:55;19.80;99.90
33149;DHT22;19506;51.040;3.856;2023-03-20T19:31:22;19.20;99.90
33149;DHT22;19506;51.040;3.856;2023-03-20T19:33:48;19.10;99.90
33149;DHT22;19506;51.040;3.856;2023-03-20T19:36:30;19.10;99.90
33149;DHT22;19506;51.040;3.856;2023-03-20T19:38:58;19.10;99.90
33149;DHT22;19506;51.040;3.856;2023-03-20T19:41:24;19.10;99.90
33149;DHT22;19506;51.040;3.856;2023-03-20T19:43:52;19.10;99.90
33149;DHT22;19506;51.040;3.856;2023-03-20T19:46:17;19.10;99.90
33149;DHT22;19506;51.040;3.856;2023-03-20T19:48:44;19.00;99.90
33149;DHT22;19506;51.040;3.856;2023-03-20T19:51:18;19.10;99.90
33149;DHT22;19506;51.040;3.856;2023-03-20T19:53:44;19.00;99.90
33149;DHT22;19506;51.040;3.856;2023-03-20T19:56:11;19.00;99.90
33149;DHT22;19506;51.040;3.856;2023-03-20T19:58:40;19.00;99.90
33149;DHT22;19506;51.040;3.856;2023-03-20T20:01:09;18.90;99.90
33149;DHT22;19506;51.040;3.856;2023-03-20T20:03:36;19.00;99.90
33149;DHT22;19506;51.040;3.856;2023-03-20T20:06:02;19.00;99.90
33149;DHT22;19506;51.040;3.856;2023-03-20T20:08:29;18.90;99.90
33149;DHT22;19506;51.040;3.856;2023-03-20T20:10:55;18.90;99.90
33149;DHT22;19506;51.040;3.856;2023-03-20T20:13:27;19.00;99.90
33149;DHT22;19506;51.040;3.856;2023-03-20T20:15:53;19.00;99.90
33149;DHT22;19506;51.040;3.856;2023-03-20T20:18:21;19.00;99.90
33149;DHT22;19506;51.040;3.856;2023-03-20T20:20:47;18.90;99.90
33149;DHT22;19506;51.040;3.856;2023-03-20T20:23:18;18.90;99.90
33149;DHT22;19506;51.040;3.856;2023-03-20T20:25:45;18.90;99.90
33149;DHT22;19506;51.040;3.856;2023-03-20T20:28:12;18.90;99.90
33149;DHT22;19506;51.040;3.856;2023-03-20T20:30:38;18.90;99.90
33149;DHT22;19506;51.040;3.856;2023-03-20T20:33:04;19.00;99.90
33149;DHT22;19506;51.040;3.856;2023-03-20T20:35:31;19.10;99.90
33149;DHT22;19506;51.040;3.856;2023-03-20T20:37:57;19.10;99.90
33149;DHT22;19506;51.040;3.856;2023-03-20T20:40:25;19.10;99.90
33149;DHT22;19506;51.040;3.856;2023-03-20T20:42:52;19.20;99.90
33149;DHT22;19506;51.040;3.856;2023-03-20T20:45:22;19.20;99.90
33149;DHT22;19506;51.040;3.856;2023-03-20T20:47:49;19.20;99.90
33149;DHT22;19506;51.040;3.856;2023-03-20T20:50:23;19.10;99.90
33149;DHT22;19506;51.040;3.856;2023-03-20T20:52:50;19.30;99.90
33149;DHT22;19506;51.040;3.856;2023-03-20T20:55:18;19.20;99.90
33149;DHT22;19506;51.040;3.856;2023-03-20T20:57:45;19.00;99.90
33149;DHT22;19506;51.040;3.856;2023-03-20T21:00:12;19.20;99.90
33149;DHT22;19506;51.040;3.856;2023-03-20T21:02:38;19.10;99.90
33149;DHT22;19506;51.040;3.856;2023-03-20T21:05:09;19.10;99.90
33149;DHT22;19506;51.040;3.856;2023-03-20T21:07:34;19.10;99.90
33149;DHT22;19506;51.040;3.856;2023-03-20T21:10:02;19.00;99.90
33149;DHT22;19506;51.040;3.856;2023-03-20T21:12:30;19.00;99.90
33149;DHT22;19506;51.040;3.856;2023-03-20T21:14:55;19.00;99.90
33149;DHT22;19506;51.040;3.856;2023-03-20T21:17:23;19.00;99.90
33149;DHT22;19506;51.040;3.856;2023-03-20T21:19:49;19.00;99.90
33149;DHT22;19506;51.040;3.856;2023-03-20T21:22:14;19.10;99.90
33149;DHT22;19506;51.040;3.856;2023-03-20T21:24:41;19.00;99.90
33149;DHT22;19506;51.040;3.856;2023-03-20T21:27:13;18.90;99.90
33149;DHT22;19506;51.040;3.856;2023-03-20T21:29:40;18.90;99.90
33149;DHT22;19506;51.040;3.856;2023-03-20T21:32:08;18.90;99.90
33149;DHT22;19506;51.040;3.856;2023-03-20T21:34:35;19.00;99.90
